Tropical Cyclones
[Index]
Main Index Home Page Stock Weather Photos Extreme Storms Discussion Storm News and Storm Chasing Reports Tropical Cyclones / Hurricanes / Typhoons Weather Data and Links Wild Fires / Bushfires Weather Observation Techniques Weather Picture Catalogue Tornado Pictures and Reports Stock Video Footage and DVDs for sale
Season 1966-1967 Tropical Cyclone JACKIE-LAURA Track Map
Season 1966-1967 Summaries: [BoM-AU] [JTWC-AU] [JTWC-SIO] [JTWC-SPAC] [JTWC-SH]
<<- Previous TC | JTWC 1966-1967 Season | Next TC ->>

click for intensity scale information  Lat/long Grid: Show Hide

 Date Labels: Show Hide

Joint Typhoon Warning Centre Cyclone Data

Name: JACKIE-LAURA
Number: 644 / 6729

06 Apr 1967 00:00 UTC to 14 Apr 1967 18:00 UTC

    date/time    lat    long     hPa   cat  kts
1967-04-06 00   10.1    95.8                  25          
1967-04-06 06   10.2    95.2                  20          
1967-04-06 12   10.5    94.6                  20          
1967-04-06 18   10.7    93.9                  30          
1967-04-07 00   11.0    93.1                  35          
1967-04-07 06   11.2    92.3                  20          
1967-04-07 12   11.5    91.6                  15          
1967-04-07 18   11.7    90.8                  25          
1967-04-08 00   12.0    90.1                  25          
1967-04-08 06   12.4    89.3                  15          
1967-04-08 12   12.9    88.6                  10          
1967-04-08 18   13.4    87.8                  15          
1967-04-09 00   14.0    87.1                  15          
1967-04-09 06   14.4    86.5                  20          
1967-04-09 12   14.9    86.0                  20          
1967-04-09 18   15.4    85.5                  20          
1967-04-10 00   16.0    85.1                  20          
1967-04-10 06   16.6    85.0                  35          
1967-04-10 12   17.2    85.0            1     40          
1967-04-10 18   18.1    85.0                  30          
1967-04-11 00   18.8    85.1                  25          
1967-04-11 06   19.5    85.6                  25          
1967-04-11 12   20.2    86.2                  30          
1967-04-11 18   21.0    86.8            1     45          
1967-04-12 00   21.9    88.1            1     50          
1967-04-12 06   23.2    90.2                  30          
1967-04-12 12   24.7    92.6                  20          
1967-04-12 18   26.2    95.0                  15          
1967-04-13 00   27.7    97.4                  15          
1967-04-13 06   29.1    99.9                  30          
1967-04-13 12   30.4   102.3                  35          
1967-04-13 18   31.6   104.4                  25          
1967-04-14 00   32.8   106.8                  25          
1967-04-14 06   34.1   109.5                  30          
1967-04-14 12   35.4   112.5                  35          
1967-04-14 18   36.6   115.5                  35          
Winds are 1-min average.

Tropical cyclone tracks developed by Michael Bath using data from the Joint Typhoon Warning Centre Best Tracks and Google Maps.


[Australian Severe Weather index] [Copyright Notice] [Email Contacts] [Search This Site] [Privacy Policy]
Document: tropical_cyclone_jackie-laura.htm Updated: 18 September 2016